Charqueadas, Brazil
Current Conditions -  °F | °C
As of 8:00 AM on Saturday 29 Nov 2014 (Local Time) from SBPA Reporting Station
Clear Clear  
Wind Chill: 73°   Ceiling: Unl
Heat Index: 73°   Visibility: 6mi
Dew Point: 66°   Wind: 3mph
Humidity: 78%   Direction: 100°E
Pressure: 29.97"   Gusts: NA
Location:  29.95°S, 51.63°W
Report Text: SBPA 291000Z 10003KT CAVOK 23/19 Q1015
Loading
Personal Weather Stations






























Interactive Weather Map New forecast layout! Learn more

10-Day Weather Forecast

Advertisements
Track Severe Weather on mobile